Time;durP1;ratioP1;P1;durP2;ratioP2;P2;SDS_P1;SDS_P2;PMS_P1;PMS_P2;Temp;Humidity;BMP_temperature;BMP_pressure;BME280_temperature;BME280_humidity;BME280_pressure;Samples;Min_cycle;Max_cycle;Signal;HPM_P1;HPM_P2
2023/06/08 08:57:15;;;;;;;21.38;12.48;;;;;;;18.61;80.55;101522.25;5005914;28;20885;-69
2023/06/08 08:59:41;;;;;;;20.70;11.80;;;;;;;18.72;80.67;101523.13;5004794;28;20102;-69
2023/06/08 09:02:08;;;;;;;14.82;9.75;;;;;;;18.83;78.81;101524.88;5027322;28;20033;-69
2023/06/08 09:04:33;;;;;;;19.88;10.98;;;;;;;18.90;77.55;101525.50;5049066;28;20079;-68
2023/06/08 09:06:58;;;;;;;18.92;11.13;;;;;;;19.01;77.01;101522.81;5049812;28;20029;-70
2023/06/08 09:09:24;;;;;;;18.17;10.52;;;;;;;19.12;77.29;101533.56;5049510;28;20029;-69
2023/06/08 09:12:03;;;;;;;17.08;10.23;;;;;;;19.23;79.50;101525.41;5046886;28;20092;-69
2023/06/08 09:14:29;;;;;;;16.42;10.00;;;;;;;19.30;75.13;101521.31;5049700;28;20021;-70
2023/06/08 09:16:58;;;;;;;19.00;9.90;;;;;;;19.35;73.80;101517.78;5049039;28;20056;-69
2023/06/08 09:19:24;;;;;;;17.52;9.98;;;;;;;19.35;73.63;101509.53;5049300;28;20033;-69
2023/06/08 09:21:50;;;;;;;17.05;9.40;;;;;;;19.49;72.95;101518.13;5049422;28;20457;-69
2023/06/08 09:24:17;;;;;;;17.02;9.57;;;;;;;19.53;71.56;101518.41;5049262;28;20483;-69
2023/06/08 09:26:50;;;;;;;19.38;9.63;;;;;;;19.58;72.59;101512.91;5049397;28;20488;-69
2023/06/08 09:29:32;;;;;;;16.70;8.82;;;;;;;19.72;73.27;101511.31;5032486;28;20476;-69
2023/06/08 09:31:58;;;;;;;;;;;;;;;19.76;74.49;101509.69;5040016;28;20084;-70
2023/06/08 09:34:25;;;;;;;15.60;9.18;;;;;;;19.90;71.24;101507.28;5029203;28;19916;-70
2023/06/08 09:36:52;;;;;;;13.10;8.10;;;;;;;20.00;69.17;101507.31;5027740;28;20071;-70
2023/06/08 09:39:18;;;;;;;14.80;9.07;;;;;;;20.08;68.14;101497.69;5029064;28;20033;-70
2023/06/08 09:41:56;;;;;;;15.45;7.35;;;;;;;20.20;69.21;101516.66;5029312;28;20043;-70
2023/06/08 09:44:21;;;;;;;12.90;7.78;;;;;;;20.33;67.34;101496.84;5028757;28;20060;-70
2023/06/08 09:46:48;;;;;;;14.43;7.70;;;;;;;20.38;65.74;101503.47;5028837;28;20069;-70
2023/06/08 09:49:14;;;;;;;16.13;7.40;;;;;;;20.43;66.19;101503.47;5047348;28;20037;-69
2023/06/08 09:51:45;;;;;;;12.35;7.75;;;;;;;20.51;66.29;101500.97;5048912;28;20029;-70
2023/06/08 09:54:13;;;;;;;13.13;7.90;;;;;;;20.58;66.43;101503.44;5039475;28;20087;-69
2023/06/08 09:56:41;;;;;;;13.90;8.95;;;;;;;20.62;66.05;101499.06;5032170;28;20053;-69
2023/06/08 09:59:08;;;;;;;17.23;8.95;;;;;;;20.71;65.52;101488.31;5030727;28;20079;-70
2023/06/08 10:01:55;;;;;;;16.83;9.15;;;;;;;20.77;66.77;101489.16;5045387;28;20080;-69
2023/06/08 10:04:37;;;;;;;17.35;8.95;;;;;;;20.86;66.74;101492.97;5027472;28;20116;-71
2023/06/08 10:07:04;;;;;;;14.52;7.55;;;;;;;21.04;66.15;101483.28;5022477;28;20042;-69
2023/06/08 10:09:35;;;;;;;12.88;7.72;;;;;;;21.07;64.43;101485.47;5014056;28;20030;-68
2023/06/08 10:12:02;;;;;;;14.10;6.13;;;;;;;21.23;62.99;101486.25;5015587;28;20100;-70
2023/06/08 10:14:28;;;;;;;13.98;7.10;;;;;;;21.31;63.47;101482.91;5013937;28;20457;-69
2023/06/08 10:16:56;;;;;;;14.77;6.97;;;;;;;21.47;62.30;101480.06;5019332;28;20091;-69
2023/06/08 10:19:22;;;;;;;11.23;6.40;;;;;;;21.59;62.47;101473.16;5034995;28;20088;-69
2023/06/08 10:21:48;;;;;;;10.88;6.20;;;;;;;21.67;61.85;101476.44;5035102;28;20057;-69
2023/06/08 10:24:15;;;;;;;9.30;5.60;;;;;;;21.64;59.17;101477.00;5034812;28;20111;-69
2023/06/08 10:26:41;;;;;;;9.73;6.07;;;;;;;21.74;58.38;101476.91;5035098;28;20037;-71
2023/06/08 10:29:08;;;;;;;13.15;6.00;;;;;;;21.76;58.35;101477.47;5033653;28;20025;-72
2023/06/08 10:31:40;;;;;;;45.67;5.72;;;;;;;21.81;57.09;101482.94;5028468;28;20114;-71
2023/06/08 10:34:16;;;;;;;9.70;4.60;;;;;;;21.86;56.62;101473.81;5032880;28;20080;-71
2023/06/08 10:36:43;;;;;;;9.85;4.93;;;;;;;21.90;57.92;101472.16;5034802;28;20029;-72
2023/06/08 10:39:12;;;;;;;9.00;5.15;;;;;;;21.97;57.62;101464.38;5034590;28;20025;-71
2023/06/08 10:41:39;;;;;;;8.48;4.30;;;;;;;22.11;56.16;101457.09;5034889;28;20029;-71
2023/06/08 10:44:05;;;;;;;10.40;5.10;;;;;;;22.19;56.36;101452.06;5034572;28;20109;-71
2023/06/08 10:46:41;;;;;;;9.43;5.60;;;;;;;22.24;56.29;101460.31;5031162;28;20108;-71
2023/06/08 10:49:07;;;;;;;9.27;5.63;;;;;;;22.24;55.81;101460.31;5013095;28;20065;-71
2023/06/08 10:51:41;;;;;;;9.07;5.38;;;;;;;22.32;55.43;101447.88;5014423;28;20473;-71
2023/06/08 10:54:09;;;;;;;10.75;4.95;;;;;;;22.38;55.64;101450.28;5013396;28;20029;-70
2023/06/08 10:56:42;;;;;;;7.65;4.60;;;;;;;22.37;55.15;101448.63;5014225;28;20053;-70
2023/06/08 10:59:07;;;;;;;9.60;4.75;;;;;;;22.46;54.03;101457.09;5013062;28;20092;-67
2023/06/08 11:01:35;;;;;;;7.22;4.80;;;;;;;22.54;54.48;101455.63;5015859;28;20049;-69
2023/06/08 11:04:04;;;;;;;11.15;5.57;;;;;;;22.56;53.83;101451.47;5023147;28;20034;-69
2023/06/08 11:06:33;;;;;;;13.45;5.68;;;;;;;22.52;53.80;101446.84;5028541;28;20540;-69
2023/06/08 11:08:59;;;;;;;12.27;5.45;;;;;;;22.65;54.57;101444.22;5013800;28;20049;-68
2023/06/08 11:11:25;;;;;;;10.38;5.97;;;;;;;22.68;53.25;101442.81;5014216;28;20473;-70
2023/06/08 11:13:51;;;;;;;8.98;5.70;;;;;;;22.69;53.25;101441.72;5020271;28;20048;-69
2023/06/08 11:16:20;;;;;;;11.18;5.60;;;;;;;22.75;53.38;101443.28;5031865;28;20029;-70
2023/06/08 11:18:46;;;;;;;12.55;5.22;;;;;;;22.68;52.83;101442.81;5025129;28;20389;-72
2023/06/08 11:21:12;;;;;;;8.85;4.90;;;;;;;22.68;52.55;101437.28;5023741;28;20022;-70
2023/06/08 11:23:37;;;;;;;8.45;4.60;;;;;;;22.80;52.41;101428.63;5014346;28;20488;-70
2023/06/08 11:26:03;;;;;;;15.25;5.13;;;;;;;22.90;53.09;101433.19;5017141;28;20025;-71
2023/06/08 11:28:29;;;;;;;12.02;5.70;;;;;;;22.97;52.34;101434.47;5013913;28;20418;-69
2023/06/08 11:31:06;;;;;;;8.93;5.97;;;;;;;22.94;52.18;101435.06;5032225;28;20087;-69
2023/06/08 11:33:56;;;;;;;8.32;5.68;;;;;;;23.00;51.55;101435.81;5025860;28;20404;-69
2023/06/08 11:36:26;;;;;;;13.45;5.93;;;;;;;23.11;51.52;101422.72;5028680;28;20029;-70
2023/06/08 11:39:00;;;;;;;12.10;6.32;;;;;;;23.06;51.36;101434.63;5028724;28;20057;-72
2023/06/08 11:41:29;;;;;;;13.77;6.28;;;;;;;23.17;51.56;101410.50;5017063;28;20037;-72
2023/06/08 11:43:57;;;;;;;9.88;5.75;;;;;;;23.29;50.97;101413.63;5030794;28;20464;-71
2023/06/08 11:46:22;;;;;;;13.35;6.30;;;;;;;23.38;50.97;101410.22;5030731;28;20065;-71
2023/06/08 11:48:47;;;;;;;13.98;7.30;;;;;;;23.42;51.17;101405.75;5028184;28;20048;-70
2023/06/08 11:51:17;;;;;;;11.70;6.30;;;;;;;23.61;50.29;101402.97;5032885;28;20021;-71
2023/06/08 11:53:45;;;;;;;9.63;5.25;;;;;;;23.77;50.09;101401.59;5020888;28;20037;-71
2023/06/08 11:56:10;;;;;;;15.00;5.13;;;;;;;23.86;49.83;101393.50;5012892;28;20100;-70
2023/06/08 11:58:37;;;;;;;12.38;5.43;;;;;;;24.01;48.97;101406.22;5016910;28;20021;-71
2023/06/08 12:01:05;;;;;;;9.50;5.07;;;;;;;24.04;48.21;101400.09;5029950;28;20478;-72
2023/06/08 12:03:34;;;;;;;11.07;5.55;;;;;;;24.00;48.03;101396.28;5032716;28;20040;-72
2023/06/08 12:05:59;;;;;;;8.80;5.22;;;;;;;24.14;47.89;101396.31;5021580;28;20037;-72
2023/06/08 12:08:25;;;;;;;8.73;5.07;;;;;;;24.19;48.17;101391.53;5028382;28;20377;-71
2023/06/08 12:10:50;;;;;;;15.00;5.95;;;;;;;24.20;47.49;101386.81;5026688;28;20069;-72
2023/06/08 12:13:18;;;;;;;12.52;5.53;;;;;;;24.30;47.95;101385.81;5024360;28;20033;-72
2023/06/08 12:15:48;;;;;;;11.77;5.60;;;;;;;24.27;46.97;101392.75;5024961;28;20482;-71
2023/06/08 12:18:16;;;;;;;12.60;6.05;;;;;;;24.27;47.13;101391.94;5027060;28;20037;-72
2023/06/08 12:20:42;;;;;;;15.15;6.22;;;;;;;24.29;47.52;101381.41;5031536;28;20052;-72
2023/06/08 12:23:09;;;;;;;13.15;5.82;;;;;;;24.40;47.36;101386.44;5032664;28;20037;-72
2023/06/08 12:25:35;;;;;;;12.88;5.60;;;;;;;24.48;46.91;101375.78;5032605;28;20036;-72
2023/06/08 12:28:01;;;;;;;14.82;6.18;;;;;;;24.63;47.12;101364.44;5016233;28;20469;-72
2023/06/08 12:30:27;;;;;;;13.13;5.82;;;;;;;24.69;46.50;101367.94;5012591;28;20037;-72
2023/06/08 12:32:53;;;;;;;15.60;5.60;;;;;;;24.82;46.66;101364.34;5019187;28;20029;-72
2023/06/08 12:35:20;;;;;;;15.05;5.60;;;;;;;24.95;46.48;101363.47;5031365;28;20461;-72
2023/06/08 12:37:48;;;;;;;12.98;5.88;;;;;;;24.89;46.07;101356.41;5018468;28;20030;-72
2023/06/08 12:40:18;;;;;;;12.40;5.65;;;;;;;25.00;46.39;101350.66;5012937;28;20042;-74
2023/06/08 12:42:48;;;;;;;15.27;5.90;;;;;;;25.00;45.89;101340.41;5012579;28;20432;-72
2023/06/08 12:45:14;;;;;;;10.80;5.15;;;;;;;25.18;46.11;101330.28;5024008;28;20459;-72
2023/06/08 12:47:39;;;;;;;9.02;4.43;;;;;;;25.27;45.58;101335.91;5020786;28;20041;-72
2023/06/08 12:50:06;;;;;;;7.15;4.13;;;;;;;25.44;44.32;101338.06;5029487;28;20029;-73
2023/06/08 12:52:32;;;;;;;11.25;3.95;;;;;;;25.51;43.88;101332.88;5028629;28;20060;-72
2023/06/08 12:54:58;;;;;;;10.52;4.25;;;;;;;25.57;44.77;101328.84;5030107;28;20065;-73
2023/06/08 12:57:23;;;;;;;10.07;3.85;;;;;;;25.70;44.09;101331.88;5029820;28;20124;-73
2023/06/08 12:59:48;;;;;;;14.10;4.90;;;;;;;25.78;43.45;101323.59;5029889;28;20132;-73
2023/06/08 13:02:14;;;;;;;11.95;4.93;;;;;;;25.91;43.61;101330.19;5028405;28;20046;-74
2023/06/08 13:04:39;;;;;;;9.52;4.85;;;;;;;25.91;43.08;101330.19;5018041;28;20034;-74
2023/06/08 13:07:05;;;;;;;13.30;4.63;;;;;;;25.98;43.76;101330.59;5023324;28;20079;-74
2023/06/08 13:09:30;;;;;;;7.07;4.40;;;;;;;26.08;43.73;101320.38;5030519;28;20079;-73
2023/06/08 13:11:56;;;;;;;6.60;4.50;;;;;;;26.24;43.57;101323.53;5030586;28;20527;-75
2023/06/08 13:14:21;;;;;;;12.13;4.82;;;;;;;26.24;43.19;101318.81;5027927;28;20026;-74
2023/06/08 13:16:47;;;;;;;9.88;4.80;;;;;;;26.19;43.05;101321.72;5026962;28;20030;-74
2023/06/08 13:19:12;;;;;;;7.90;4.35;;;;;;;26.19;43.35;101310.63;5017152;28;20116;-76
2023/06/08 13:21:38;;;;;;;9.13;4.32;;;;;;;26.33;42.85;101313.28;5013540;28;20033;-73
2023/06/08 13:24:06;;;;;;;13.45;4.10;;;;;;;26.46;42.75;101314.31;5011748;28;20041;-72
2023/06/08 13:26:32;;;;;;;8.65;4.00;;;;;;;26.49;42.57;101306.16;5024882;28;20034;-71
2023/06/08 13:28:58;;;;;;;11.75;4.50;;;;;;;26.66;43.21;101318.44;5030892;28;20025;-74
2023/06/08 13:31:23;;;;;;;9.25;4.60;;;;;;;26.61;42.40;101313.84;5031882;28;20030;-71
2023/06/08 13:33:48;;;;;;;13.38;5.32;;;;;;;26.65;42.80;101306.53;5028369;28;20033;-70
2023/06/08 13:36:14;;;;;;;9.35;4.55;;;;;;;26.69;42.41;101304.78;5031743;28;20060;-72
2023/06/08 13:38:39;;;;;;;14.25;5.15;;;;;;;26.78;43.00;101298.41;5031646;28;20061;-71
2023/06/08 13:41:05;;;;;;;12.30;5.10;;;;;;;26.87;42.14;101302.00;5018614;28;20045;-72
2023/06/08 13:43:30;;;;;;;16.30;4.50;;;;;;;26.87;41.58;101294.50;5013376;28;20112;-71
2023/06/08 13:45:58;;;;;;;11.55;4.60;;;;;;;27.00;41.71;101289.94;5015748;28;20041;-71
2023/06/08 13:48:27;;;;;;;9.57;4.90;;;;;;;27.05;41.52;101288.94;5014188;28;20084;-71
2023/06/08 13:50:55;;;;;;;6.28;4.53;;;;;;;27.19;41.22;101291.56;5015733;28;20038;-72
2023/06/08 13:53:20;;;;;;;14.63;5.10;;;;;;;27.23;40.94;101287.78;5014136;28;20427;-72
2023/06/08 13:55:47;;;;;;;8.82;4.63;;;;;;;27.25;40.23;101270.78;5030405;28;20050;-75
2023/06/08 13:58:13;;;;;;;11.73;5.25;;;;;;;27.23;40.36;101264.75;5014855;28;20029;-73
2023/06/08 14:00:38;;;;;;;11.20;5.32;;;;;;;27.23;40.35;101270.31;5011519;28;20770;-71
2023/06/08 14:03:03;;;;;;;9.15;4.68;;;;;;;27.18;40.47;101285.19;5022928;28;20034;-73
2023/06/08 14:05:29;;;;;;;12.70;5.40;;;;;;;27.05;40.68;101281.44;5013865;28;20030;-72
2023/06/08 14:07:54;;;;;;;11.18;5.13;;;;;;;27.01;40.76;101269.34;5015620;28;20037;-72
2023/06/08 14:10:21;;;;;;;7.10;5.07;;;;;;;27.04;40.99;101256.78;5014129;28;20519;-71
2023/06/08 14:12:48;;;;;;;11.63;5.38;;;;;;;27.16;41.01;101258.88;5014884;28;20030;-69
2023/06/08 14:15:15;;;;;;;9.95;4.88;;;;;;;27.21;40.57;101255.94;5020029;28;20103;-69
2023/06/08 14:17:41;;;;;;;11.82;4.82;;;;;;;27.35;40.25;101266.91;5015282;28;20025;-70
2023/06/08 14:20:07;;;;;;;12.98;5.03;;;;;;;27.08;40.67;101262.47;5013940;28;20045;-70
2023/06/08 14:22:32;;;;;;;14.63;5.75;;;;;;;26.89;41.28;101263.63;5020128;28;20416;-70
2023/06/08 14:24:58;;;;;;;9.02;4.82;;;;;;;26.93;40.98;101252.69;5045594;28;20479;-72
2023/06/08 14:27:23;;;;;;;12.30;5.05;;;;;;;27.02;41.02;101248.75;5027909;28;20479;-69
2023/06/08 14:29:48;;;;;;;10.37;4.93;;;;;;;27.11;40.84;101247.94;5032758;28;20029;-69
2023/06/08 14:32:14;;;;;;;11.90;5.22;;;;;;;27.00;40.92;101245.50;5034688;28;20291;-69
2023/06/08 14:34:39;;;;;;;10.30;5.05;;;;;;;27.11;40.80;101245.97;5016521;28;20018;-71
2023/06/08 14:37:04;;;;;;;8.20;4.90;;;;;;;27.27;40.39;101231.59;5029783;28;20029;-70
2023/06/08 14:39:30;;;;;;;6.90;4.47;;;;;;;27.29;40.71;101232.06;5026896;28;20112;-70
2023/06/08 14:41:55;;;;;;;11.65;4.65;;;;;;;27.36;39.95;101236.00;5024752;28;20029;-71
2023/06/08 14:44:21;;;;;;;9.30;5.10;;;;;;;27.37;39.75;101232.09;5022988;28;20026;-71
2023/06/08 14:46:46;;;;;;;10.65;4.80;;;;;;;27.51;39.75;101231.06;5033546;28;20042;-71
2023/06/08 14:49:11;;;;;;;9.97;4.80;;;;;;;27.62;39.72;101226.78;5048722;28;20395;-71
2023/06/08 14:51:37;;;;;;;6.32;4.13;;;;;;;27.76;39.32;101229.34;5021672;28;20289;-72
2023/06/08 14:54:02;;;;;;;9.18;4.38;;;;;;;27.68;39.43;101231.00;5019515;28;20033;-71
2023/06/08 14:56:28;;;;;;;9.73;4.70;;;;;;;27.76;39.36;101221.84;5029488;28;20049;-71
2023/06/08 14:58:53;;;;;;;12.52;4.90;;;;;;;27.81;39.07;101228.34;5026498;28;20466;-72
2023/06/08 15:01:19;;;;;;;9.57;5.00;;;;;;;27.77;38.84;101219.84;5011006;28;20116;-73
2023/06/08 15:03:44;;;;;;;11.82;5.13;;;;;;;27.83;39.12;101228.84;5033094;28;20038;-72
2023/06/08 15:06:09;;;;;;;7.82;4.57;;;;;;;27.82;38.72;101233.56;5014922;28;20034;-72
2023/06/08 15:08:38;;;;;;;8.43;4.53;;;;;;;27.90;38.90;101221.59;5020248;28;20039;-73
2023/06/08 15:11:16;;;;;;;9.25;4.68;;;;;;;28.09;38.96;101237.06;5013068;28;20473;-72
2023/06/08 15:13:50;;;;;;;16.25;4.90;;;;;;;28.05;39.14;101227.75;5012697;28;20029;-72
2023/06/08 15:16:27;;;;;;;7.97;4.68;;;;;;;28.14;38.92;101236.06;5012955;28;20018;-71
2023/06/08 15:18:54;;;;;;;7.55;4.90;;;;;;;28.03;38.84;101224.50;5015927;28;20041;-71
2023/06/08 15:21:19;;;;;;;9.63;5.07;;;;;;;27.81;39.13;101228.34;5012777;28;20018;-72
2023/06/08 15:23:46;;;;;;;7.90;5.18;;;;;;;27.68;39.87;101231.00;5014509;28;20025;-71
2023/06/08 15:26:11;;;;;;;14.25;5.25;;;;;;;27.55;40.39;101232.84;5014647;28;20017;-71
2023/06/08 15:28:37;;;;;;;13.25;5.05;;;;;;;27.33;40.23;101235.84;5023664;28;20103;-71
2023/06/08 15:31:02;;;;;;;9.75;4.95;;;;;;;27.40;41.36;101236.16;5021978;28;20500;-71
2023/06/08 15:33:29;;;;;;;8.73;5.20;;;;;;;27.51;40.48;101231.88;5024300;28;20025;-71
2023/06/08 15:35:55;;;;;;;5.95;4.90;;;;;;;27.54;40.59;101220.09;5018640;28;20057;-71
2023/06/08 15:38:20;;;;;;;12.07;4.72;;;;;;;27.62;40.24;101221.22;5020776;28;20080;-71
2023/06/08 15:40:46;;;;;;;12.98;5.35;;;;;;;27.69;40.77;101204.84;5028320;28;20021;-72
2023/06/08 15:43:11;;;;;;;10.75;5.22;;;;;;;27.85;40.14;101212.63;5025343;28;20038;-72
2023/06/08 15:45:37;;;;;;;10.77;5.10;;;;;;;28.13;40.08;101214.94;5015437;28;20380;-71
2023/06/08 15:48:02;;;;;;;8.32;4.72;;;;;;;28.26;39.52;101216.69;5021466;28;20040;-73
2023/06/08 15:50:28;;;;;;;13.27;4.80;;;;;;;28.44;38.84;101206.25;5022569;28;20032;-71
2023/06/08 15:52:53;;;;;;;11.27;5.45;;;;;;;28.22;39.10;101205.41;5024375;28;20435;-71
2023/06/08 15:55:19;;;;;;;9.43;5.25;;;;;;;28.30;38.83;101198.16;5021033;28;20054;-72
2023/06/08 15:57:45;;;;;;;12.70;5.10;;;;;;;28.64;38.25;101199.91;5020291;28;20091;-72
2023/06/08 16:00:11;;;;;;;10.13;4.60;;;;;;;28.95;38.58;101197.84;5028917;28;20034;-72
2023/06/08 16:02:37;;;;;;;9.45;4.60;;;;;;;28.87;38.78;101185.63;5014883;28;20394;-71
2023/06/08 16:05:04;;;;;;;9.25;4.47;;;;;;;28.57;38.29;101190.44;5017328;28;20468;-71
2023/06/08 16:07:29;;;;;;;7.95;4.50;;;;;;;28.14;38.80;101199.91;5027896;28;20030;-72
